sensor_id;sensor_type;location;lat;lon;timestamp;temperature;humidity
71649;SHT31;70112;45.624;11.760;2024-02-26T00:01:40;9.45;74.06
71649;SHT31;70112;45.624;11.760;2024-02-26T00:04:08;9.41;74.14
71649;SHT31;70112;45.624;11.760;2024-02-26T00:06:34;9.36;74.21
71649;SHT31;70112;45.624;11.760;2024-02-26T00:09:00;9.34;74.25
71649;SHT31;70112;45.624;11.760;2024-02-26T00:11:27;9.31;74.28
71649;SHT31;70112;45.624;11.760;2024-02-26T00:13:53;9.27;74.30
71649;SHT31;70112;45.624;11.760;2024-02-26T00:16:18;9.25;74.37
71649;SHT31;70112;45.624;11.760;2024-02-26T00:18:44;9.23;74.40
71649;SHT31;70112;45.624;11.760;2024-02-26T00:21:09;9.21;74.47
71649;SHT31;70112;45.624;11.760;2024-02-26T00:23:35;9.19;74.51
71649;SHT31;70112;45.624;11.760;2024-02-26T00:26:00;9.18;74.60
71649;SHT31;70112;45.624;11.760;2024-02-26T00:28:26;9.19;74.70
71649;SHT31;70112;45.624;11.760;2024-02-26T00:30:52;9.18;74.77
71649;SHT31;70112;45.624;11.760;2024-02-26T00:33:21;9.18;74.77
71649;SHT31;70112;45.624;11.760;2024-02-26T00:35:47;9.13;74.70
71649;SHT31;70112;45.624;11.760;2024-02-26T00:38:13;9.11;74.72
71649;SHT31;70112;45.624;11.760;2024-02-26T00:40:39;9.10;74.73
71649;SHT31;70112;45.624;11.760;2024-02-26T00:43:06;9.11;74.74
71649;SHT31;70112;45.624;11.760;2024-02-26T00:45:32;9.10;74.81
71649;SHT31;70112;45.624;11.760;2024-02-26T00:47:58;9.10;74.83
71649;SHT31;70112;45.624;11.760;2024-02-26T00:50:26;9.08;74.90
71649;SHT31;70112;45.624;11.760;2024-02-26T00:52:52;9.06;74.91
71649;SHT31;70112;45.624;11.760;2024-02-26T00:55:17;9.06;74.95
71649;SHT31;70112;45.624;11.760;2024-02-26T00:57:43;9.04;74.96
71649;SHT31;70112;45.624;11.760;2024-02-26T01:00:08;9.02;74.91
71649;SHT31;70112;45.624;11.760;2024-02-26T01:02:35;9.00;74.90
71649;SHT31;70112;45.624;11.760;2024-02-26T01:05:01;8.97;74.90
71649;SHT31;70112;45.624;11.760;2024-02-26T01:07:27;8.94;74.81
71649;SHT31;70112;45.624;11.760;2024-02-26T01:09:53;8.93;74.81
71649;SHT31;70112;45.624;11.760;2024-02-26T01:12:18;8.92;74.88
71649;SHT31;70112;45.624;11.760;2024-02-26T01:14:44;8.88;74.76
71649;SHT31;70112;45.624;11.760;2024-02-26T01:17:09;8.80;74.64
71649;SHT31;70112;45.624;11.760;2024-02-26T01:19:35;8.75;74.77
71649;SHT31;70112;45.624;11.760;2024-02-26T01:22:00;8.72;74.89
71649;SHT31;70112;45.624;11.760;2024-02-26T01:24:26;8.91;74.52
71649;SHT31;70112;45.624;11.760;2024-02-26T01:26:52;8.97;74.36
71649;SHT31;70112;45.624;11.760;2024-02-26T01:29:17;9.00;74.40
71649;SHT31;70112;45.624;11.760;2024-02-26T01:31:43;9.01;74.54
71649;SHT31;70112;45.624;11.760;2024-02-26T01:34:08;9.02;74.66
71649;SHT31;70112;45.624;11.760;2024-02-26T01:36:34;9.05;74.76
71649;SHT31;70112;45.624;11.760;2024-02-26T01:38:59;9.06;74.83
71649;SHT31;70112;45.624;11.760;2024-02-26T01:41:25;9.07;74.90
71649;SHT31;70112;45.624;11.760;2024-02-26T01:43:50;9.09;74.90
71649;SHT31;70112;45.624;11.760;2024-02-26T01:46:16;9.09;74.90
71649;SHT31;70112;45.624;11.760;2024-02-26T01:48:43;9.10;75.00
71649;SHT31;70112;45.624;11.760;2024-02-26T01:51:12;9.10;74.99
71649;SHT31;70112;45.624;11.760;2024-02-26T01:53:39;9.10;75.08
71649;SHT31;70112;45.624;11.760;2024-02-26T01:56:05;9.08;75.16
71649;SHT31;70112;45.624;11.760;2024-02-26T01:58:32;9.05;75.34
71649;SHT31;70112;45.624;11.760;2024-02-26T02:00:59;9.01;75.40
71649;SHT31;70112;45.624;11.760;2024-02-26T02:03:26;8.99;75.40
71649;SHT31;70112;45.624;11.760;2024-02-26T02:05:51;8.98;75.36
71649;SHT31;70112;45.624;11.760;2024-02-26T02:08:17;8.97;75.36
71649;SHT31;70112;45.624;11.760;2024-02-26T02:10:43;8.98;75.39
71649;SHT31;70112;45.624;11.760;2024-02-26T02:13:12;8.99;75.38
71649;SHT31;70112;45.624;11.760;2024-02-26T02:15:39;8.98;75.35
71649;SHT31;70112;45.624;11.760;2024-02-26T02:18:05;8.97;75.30
71649;SHT31;70112;45.624;11.760;2024-02-26T02:40:52;8.85;74.96
71649;SHT31;70112;45.624;11.760;2024-02-26T02:43:18;8.84;74.90
71649;SHT31;70112;45.624;11.760;2024-02-26T02:45:43;8.81;74.86
71649;SHT31;70112;45.624;11.760;2024-02-26T02:48:09;8.74;74.81
71649;SHT31;70112;45.624;11.760;2024-02-26T02:50:36;8.70;74.80
71649;SHT31;70112;45.624;11.760;2024-02-26T02:53:01;8.67;74.78
71649;SHT31;70112;45.624;11.760;2024-02-26T02:55:27;8.63;74.71
71649;SHT31;70112;45.624;11.760;2024-02-26T02:57:53;8.58;74.76
71649;SHT31;70112;45.624;11.760;2024-02-26T03:00:18;8.54;74.78
71649;SHT31;70112;45.624;11.760;2024-02-26T03:02:44;8.53;74.73
71649;SHT31;70112;45.624;11.760;2024-02-26T03:05:10;8.52;74.70
71649;SHT31;70112;45.624;11.760;2024-02-26T03:07:36;8.47;74.69
71649;SHT31;70112;45.624;11.760;2024-02-26T03:10:01;8.46;74.69
71649;SHT31;70112;45.624;11.760;2024-02-26T03:12:27;8.43;74.69
71649;SHT31;70112;45.624;11.760;2024-02-26T03:14:53;8.41;74.70
71649;SHT31;70112;45.624;11.760;2024-02-26T03:17:19;8.39;74.70
71649;SHT31;70112;45.624;11.760;2024-02-26T03:19:46;8.36;74.70
71649;SHT31;70112;45.624;11.760;2024-02-26T03:22:12;8.35;74.66
71649;SHT31;70112;45.624;11.760;2024-02-26T03:24:38;8.30;74.54
71649;SHT31;70112;45.624;11.760;2024-02-26T03:27:04;8.26;74.50
71649;SHT31;70112;45.624;11.760;2024-02-26T03:29:34;8.23;74.55
71649;SHT31;70112;45.624;11.760;2024-02-26T03:32:01;8.19;74.50
71649;SHT31;70112;45.624;11.760;2024-02-26T03:34:26;8.15;74.53
71649;SHT31;70112;45.624;11.760;2024-02-26T03:36:53;8.10;74.62
71649;SHT31;70112;45.624;11.760;2024-02-26T03:39:18;8.08;74.69
71649;SHT31;70112;45.624;11.760;2024-02-26T03:41:44;8.08;74.75
71649;SHT31;70112;45.624;11.760;2024-02-26T03:44:09;8.06;74.80
71649;SHT31;70112;45.624;11.760;2024-02-26T03:46:35;8.06;74.80
71649;SHT31;70112;45.624;11.760;2024-02-26T03:49:00;8.05;74.70
71649;SHT31;70112;45.624;11.760;2024-02-26T03:51:26;8.05;74.70
71649;SHT31;70112;45.624;11.760;2024-02-26T03:53:56;8.04;74.73
71649;SHT31;70112;45.624;11.760;2024-02-26T03:56:23;8.04;74.81
71649;SHT31;70112;45.624;11.760;2024-02-26T03:58:50;8.05;74.83
71649;SHT31;70112;45.624;11.760;2024-02-26T04:01:15;8.04;74.88
71649;SHT31;70112;45.624;11.760;2024-02-26T04:03:41;8.03;74.89
71649;SHT31;70112;45.624;11.760;2024-02-26T04:06:10;8.05;74.90
71649;SHT31;70112;45.624;11.760;2024-02-26T04:08:36;8.06;74.90
71649;SHT31;70112;45.624;11.760;2024-02-26T04:11:03;8.07;74.89
71649;SHT31;70112;45.624;11.760;2024-02-26T04:13:32;8.04;74.79
71649;SHT31;70112;45.624;11.760;2024-02-26T04:15:59;8.03;74.80
71649;SHT31;70112;45.624;11.760;2024-02-26T04:18:26;8.01;74.80
71649;SHT31;70112;45.624;11.760;2024-02-26T04:20:52;8.01;74.80
71649;SHT31;70112;45.624;11.760;2024-02-26T04:23:18;8.01;74.80
71649;SHT31;70112;45.624;11.760;2024-02-26T04:25:44;8.01;74.87
71649;SHT31;70112;45.624;11.760;2024-02-26T04:28:10;8.01;74.90
71649;SHT31;70112;45.624;11.760;2024-02-26T04:30:35;8.03;75.01
71649;SHT31;70112;45.624;11.760;2024-02-26T04:33:01;8.03;75.11
71649;SHT31;70112;45.624;11.760;2024-02-26T04:35:27;8.04;75.20
71649;SHT31;70112;45.624;11.760;2024-02-26T04:37:52;8.03;75.23
71649;SHT31;70112;45.624;11.760;2024-02-26T04:40:18;8.04;75.20
71649;SHT31;70112;45.624;11.760;2024-02-26T04:42:43;8.04;75.19
71649;SHT31;70112;45.624;11.760;2024-02-26T04:45:09;8.04;75.11
71649;SHT31;70112;45.624;11.760;2024-02-26T04:47:34;8.01;75.17
71649;SHT31;70112;45.624;11.760;2024-02-26T04:50:00;8.00;75.20
71649;SHT31;70112;45.624;11.760;2024-02-26T04:52:26;8.01;75.22
71649;SHT31;70112;45.624;11.760;2024-02-26T04:54:51;8.01;75.20
71649;SHT31;70112;45.624;11.760;2024-02-26T04:57:17;8.00;75.20
71649;SHT31;70112;45.624;11.760;2024-02-26T04:59:43;8.00;75.26
71649;SHT31;70112;45.624;11.760;2024-02-26T05:02:11;7.99;75.37
71649;SHT31;70112;45.624;11.760;2024-02-26T05:04:37;7.99;75.40
71649;SHT31;70112;45.624;11.760;2024-02-26T05:07:02;7.99;75.39
71649;SHT31;70112;45.624;11.760;2024-02-26T05:09:28;7.97;75.39
71649;SHT31;70112;45.624;11.760;2024-02-26T05:11:54;7.97;75.40
71649;SHT31;70112;45.624;11.760;2024-02-26T05:14:20;7.96;75.41
71649;SHT31;70112;45.624;11.760;2024-02-26T05:16:46;7.97;75.40
71649;SHT31;70112;45.624;11.760;2024-02-26T05:19:12;7.96;75.41
71649;SHT31;70112;45.624;11.760;2024-02-26T05:21:38;7.94;75.48
71649;SHT31;70112;45.624;11.760;2024-02-26T05:24:05;7.92;75.49
71649;SHT31;70112;45.624;11.760;2024-02-26T05:26:31;7.93;75.59
71649;SHT31;70112;45.624;11.760;2024-02-26T05:28:56;7.94;75.67
71649;SHT31;70112;45.624;11.760;2024-02-26T05:31:26;7.95;75.73
71649;SHT31;70112;45.624;11.760;2024-02-26T05:33:52;7.96;75.80
71649;SHT31;70112;45.624;11.760;2024-02-26T05:36:20;7.97;75.89
71649;SHT31;70112;45.624;11.760;2024-02-26T05:38:47;7.99;75.99
71649;SHT31;70112;45.624;11.760;2024-02-26T05:41:17;8.02;76.13
71649;SHT31;70112;45.624;11.760;2024-02-26T05:43:49;8.05;76.20
71649;SHT31;70112;45.624;11.760;2024-02-26T05:46:18;8.07;76.23
71649;SHT31;70112;45.624;11.760;2024-02-26T05:48:46;8.10;76.30
71649;SHT31;70112;45.624;11.760;2024-02-26T05:51:13;8.13;76.30
71649;SHT31;70112;45.624;11.760;2024-02-26T05:53:39;8.14;76.30
71649;SHT31;70112;45.624;11.760;2024-02-26T05:56:06;8.14;76.33
71649;SHT31;70112;45.624;11.760;2024-02-26T05:58:31;8.15;76.33
71649;SHT31;70112;45.624;11.760;2024-02-26T06:00:57;8.14;76.30
71649;SHT31;70112;45.624;11.760;2024-02-26T06:03:22;8.15;76.30
71649;SHT31;70112;45.624;11.760;2024-02-26T06:05:48;8.14;76.25
71649;SHT31;70112;45.624;11.760;2024-02-26T06:08:13;8.12;76.19
71649;SHT31;70112;45.624;11.760;2024-02-26T06:10:39;8.11;76.21
71649;SHT31;70112;45.624;11.760;2024-02-26T06:13:05;8.12;76.30
71649;SHT31;70112;45.624;11.760;2024-02-26T06:15:30;8.13;76.30
71649;SHT31;70112;45.624;11.760;2024-02-26T06:17:56;8.11;76.30
71649;SHT31;70112;45.624;11.760;2024-02-26T06:20:21;8.10;76.30
71649;SHT31;70112;45.624;11.760;2024-02-26T06:22:47;8.10;76.31
71649;SHT31;70112;45.624;11.760;2024-02-26T06:25:12;8.12;76.34
71649;SHT31;70112;45.624;11.760;2024-02-26T06:27:38;8.12;76.30
71649;SHT31;70112;45.624;11.760;2024-02-26T06:30:03;8.14;76.35
71649;SHT31;70112;45.624;11.760;2024-02-26T06:32:30;8.16;76.40
71649;SHT31;70112;45.624;11.760;2024-02-26T06:34:55;8.18;76.40
71649;SHT31;70112;45.624;11.760;2024-02-26T06:37:21;8.20;76.40
71649;SHT31;70112;45.624;11.760;2024-02-26T06:39:47;8.19;76.40
71649;SHT31;70112;45.624;11.760;2024-02-26T06:42:12;8.17;76.38
71649;SHT31;70112;45.624;11.760;2024-02-26T06:44:38;8.18;76.47
71649;SHT31;70112;45.624;11.760;2024-02-26T06:47:03;8.20;76.50
71649;SHT31;70112;45.624;11.760;2024-02-26T06:49:29;8.20;76.50
71649;SHT31;70112;45.624;11.760;2024-02-26T06:51:55;8.21;76.67
71649;SHT31;70112;45.624;11.760;2024-02-26T06:54:20;8.23;76.76
71649;SHT31;70112;45.624;11.760;2024-02-26T06:56:46;8.26;76.85
71649;SHT31;70112;45.624;11.760;2024-02-26T06:59:12;8.27;76.95
71649;SHT31;70112;45.624;11.760;2024-02-26T07:01:39;8.31;77.04
71649;SHT31;70112;45.624;11.760;2024-02-26T07:04:06;8.35;77.10
71649;SHT31;70112;45.624;11.760;2024-02-26T07:06:32;8.39;77.10
71649;SHT31;70112;45.624;11.760;2024-02-26T07:08:58;8.44;77.12
71649;SHT31;70112;45.624;11.760;2024-02-26T07:11:23;8.47;77.26
71649;SHT31;70112;45.624;11.760;2024-02-26T07:13:48;8.52;77.30
71649;SHT31;70112;45.624;11.760;2024-02-26T07:16:15;8.55;77.30
71649;SHT31;70112;45.624;11.760;2024-02-26T07:18:41;8.58;77.30
71649;SHT31;70112;45.624;11.760;2024-02-26T07:21:08;8.61;77.26
71649;SHT31;70112;45.624;11.760;2024-02-26T07:23:34;8.66;77.26
71649;SHT31;70112;45.624;11.760;2024-02-26T07:26:00;8.69;77.20
71649;SHT31;70112;45.624;11.760;2024-02-26T07:28:25;8.72;77.14
71649;SHT31;70112;45.624;11.760;2024-02-26T07:30:51;8.73;77.11
71649;SHT31;70112;45.624;11.760;2024-02-26T07:33:16;8.73;77.10
71649;SHT31;70112;45.624;11.760;2024-02-26T07:35:42;8.76;77.17
71649;SHT31;70112;45.624;11.760;2024-02-26T07:38:07;8.78;77.19
71649;SHT31;70112;45.624;11.760;2024-02-26T07:40:33;8.77;77.10
71649;SHT31;70112;45.624;11.760;2024-02-26T07:42:58;8.79;77.13
71649;SHT31;70112;45.624;11.760;2024-02-26T07:45:24;8.80;77.11
71649;SHT31;70112;45.624;11.760;2024-02-26T07:47:49;8.81;77.11
71649;SHT31;70112;45.624;11.760;2024-02-26T07:50:16;8.83;77.10
71649;SHT31;70112;45.624;11.760;2024-02-26T07:52:43;8.86;77.10
71649;SHT31;70112;45.624;11.760;2024-02-26T07:55:09;8.89;77.11
71649;SHT31;70112;45.624;11.760;2024-02-26T07:57:35;8.93;77.10
71649;SHT31;70112;45.624;11.760;2024-02-26T08:00:04;8.95;77.10
71649;SHT31;70112;45.624;11.760;2024-02-26T08:02:34;8.99;77.10
71649;SHT31;70112;45.624;11.760;2024-02-26T08:29:29;9.58;76.44
71649;SHT31;70112;45.624;11.760;2024-02-26T08:31:54;9.60;76.40
71649;SHT31;70112;45.624;11.760;2024-02-26T08:34:20;9.63;76.31
71649;SHT31;70112;45.624;11.760;2024-02-26T08:36:45;9.66;76.20
71649;SHT31;70112;45.624;11.760;2024-02-26T08:39:11;9.69;76.10
71649;SHT31;70112;45.624;11.760;2024-02-26T08:41:38;9.72;76.00
71649;SHT31;70112;45.624;11.760;2024-02-26T08:44:04;9.73;75.86
71649;SHT31;70112;45.624;11.760;2024-02-26T08:46:29;9.76;75.81
71649;SHT31;70112;45.624;11.760;2024-02-26T08:48:55;9.78;75.81
71649;SHT31;70112;45.624;11.760;2024-02-26T08:51:20;9.81;75.80
71649;SHT31;70112;45.624;11.760;2024-02-26T08:53:46;9.84;75.80
71649;SHT31;70112;45.624;11.760;2024-02-26T08:56:11;9.85;75.80
71649;SHT31;70112;45.624;11.760;2024-02-26T08:58:41;9.87;75.78
71649;SHT31;70112;45.624;11.760;2024-02-26T09:01:13;9.90;75.70
71649;SHT31;70112;45.624;11.760;2024-02-26T09:03:39;9.92;75.70
71649;SHT31;70112;45.624;11.760;2024-02-26T09:06:05;9.95;75.67
71649;SHT31;70112;45.624;11.760;2024-02-26T09:08:32;9.97;75.70
71649;SHT31;70112;45.624;11.760;2024-02-26T09:10:58;10.00;75.70
71649;SHT31;70112;45.624;11.760;2024-02-26T09:13:24;10.03;75.70
71649;SHT31;70112;45.624;11.760;2024-02-26T09:15:49;10.05;75.64
71649;SHT31;70112;45.624;11.760;2024-02-26T09:18:15;10.09;75.61
71649;SHT31;70112;45.624;11.760;2024-02-26T09:20:41;10.13;75.67
71649;SHT31;70112;45.624;11.760;2024-02-26T09:23:06;10.18;75.67
71649;SHT31;70112;45.624;11.760;2024-02-26T09:25:32;10.23;75.69
71649;SHT31;70112;45.624;11.760;2024-02-26T09:27:58;10.34;75.63
71649;SHT31;70112;45.624;11.760;2024-02-26T09:30:24;10.42;75.52
71649;SHT31;70112;45.624;11.760;2024-02-26T09:32:50;10.48;75.47
71649;SHT31;70112;45.624;11.760;2024-02-26T09:35:16;10.55;75.26
71649;SHT31;70112;45.624;11.760;2024-02-26T09:37:41;10.61;75.07
71649;SHT31;70112;45.624;11.760;2024-02-26T09:40:09;10.66;75.00
71649;SHT31;70112;45.624;11.760;2024-02-26T09:42:41;10.70;74.96
71649;SHT31;70112;45.624;11.760;2024-02-26T09:45:10;10.71;74.85
71649;SHT31;70112;45.624;11.760;2024-02-26T09:47:42;10.72;74.65
71649;SHT31;70112;45.624;11.760;2024-02-26T09:50:09;10.72;74.56
71649;SHT31;70112;45.624;11.760;2024-02-26T09:52:38;10.73;74.50
71649;SHT31;70112;45.624;11.760;2024-02-26T09:55:07;10.75;74.42
71649;SHT31;70112;45.624;11.760;2024-02-26T09:57:35;10.80;74.22
71649;SHT31;70112;45.624;11.760;2024-02-26T10:00:02;10.82;73.94
71649;SHT31;70112;45.624;11.760;2024-02-26T10:02:31;10.86;73.70
71649;SHT31;70112;45.624;11.760;2024-02-26T10:05:00;10.95;73.60
71649;SHT31;70112;45.624;11.760;2024-02-26T10:07:30;11.01;73.42
71649;SHT31;70112;45.624;11.760;2024-02-26T10:09:56;11.03;73.37
71649;SHT31;70112;45.624;11.760;2024-02-26T10:12:22;11.06;73.23
71649;SHT31;70112;45.624;11.760;2024-02-26T10:14:50;11.07;73.09
71649;SHT31;70112;45.624;11.760;2024-02-26T10:17:16;11.08;72.94
71649;SHT31;70112;45.624;11.760;2024-02-26T10:19:42;11.09;72.90
71649;SHT31;70112;45.624;11.760;2024-02-26T10:22:08;11.11;72.94
71649;SHT31;70112;45.624;11.760;2024-02-26T10:24:33;11.15;72.92
71649;SHT31;70112;45.624;11.760;2024-02-26T10:27:02;11.17;72.76
71649;SHT31;70112;45.624;11.760;2024-02-26T10:29:28;11.18;72.69
71649;SHT31;70112;45.624;11.760;2024-02-26T10:31:53;11.19;72.66
71649;SHT31;70112;45.624;11.760;2024-02-26T10:34:19;11.21;72.60
71649;SHT31;70112;45.624;11.760;2024-02-26T10:36:46;11.24;72.57
71649;SHT31;70112;45.624;11.760;2024-02-26T10:39:12;11.26;72.44
71649;SHT31;70112;45.624;11.760;2024-02-26T10:41:42;11.29;72.40
71649;SHT31;70112;45.624;11.760;2024-02-26T10:44:10;11.30;72.30
71649;SHT31;70112;45.624;11.760;2024-02-26T10:46:38;11.29;72.23
71649;SHT31;70112;45.624;11.760;2024-02-26T10:49:08;11.29;72.20
71649;SHT31;70112;45.624;11.760;2024-02-26T10:51:41;11.32;72.17
71649;SHT31;70112;45.624;11.760;2024-02-26T10:54:10;11.34;72.19
71649;SHT31;70112;45.624;11.760;2024-02-26T10:56:41;11.35;72.13
71649;SHT31;70112;45.624;11.760;2024-02-26T10:59:11;11.37;72.10
71649;SHT31;70112;45.624;11.760;2024-02-26T11:01:37;11.39;72.10
71649;SHT31;70112;45.624;11.760;2024-02-26T11:04:06;11.41;72.13
71649;SHT31;70112;45.624;11.760;2024-02-26T11:06:34;11.42;72.11
71649;SHT31;70112;45.624;11.760;2024-02-26T11:09:01;11.47;72.14
71649;SHT31;70112;45.624;11.760;2024-02-26T11:11:29;11.52;72.20
71649;SHT31;70112;45.624;11.760;2024-02-26T11:13:57;11.59;72.20
71649;SHT31;70112;45.624;11.760;2024-02-26T11:16:24;11.67;72.12
71649;SHT31;70112;45.624;11.760;2024-02-26T11:18:51;11.74;72.04
71649;SHT31;70112;45.624;11.760;2024-02-26T11:21:20;11.83;71.88
71649;SHT31;70112;45.624;11.760;2024-02-26T11:23:56;11.92;71.71
71649;SHT31;70112;45.624;11.760;2024-02-26T11:26:22;11.97;71.60
71649;SHT31;70112;45.624;11.760;2024-02-26T11:28:50;12.01;71.46
71649;SHT31;70112;45.624;11.760;2024-02-26T11:31:18;12.05;71.43
71649;SHT31;70112;45.624;11.760;2024-02-26T11:33:51;12.07;71.39
71649;SHT31;70112;45.624;11.760;2024-02-26T11:36:17;12.08;71.36
71649;SHT31;70112;45.624;11.760;2024-02-26T11:38:44;12.06;71.24
71649;SHT31;70112;45.624;11.760;2024-02-26T11:41:14;12.05;71.11
71649;SHT31;70112;45.624;11.760;2024-02-26T11:46:39;12.02;71.09
71649;SHT31;70112;45.624;11.760;2024-02-26T11:51:51;12.00;71.04
71649;SHT31;70112;45.624;11.760;2024-02-26T11:57:24;11.96;70.99
71649;SHT31;70112;45.624;11.760;2024-02-26T12:02:47;11.95;71.04
71649;SHT31;70112;45.624;11.760;2024-02-26T12:05:23;11.98;71.10
71649;SHT31;70112;45.624;11.760;2024-02-26T12:07:52;12.00;71.09
71649;SHT31;70112;45.624;11.760;2024-02-26T12:10:27;12.02;70.98
71649;SHT31;70112;45.624;11.760;2024-02-26T12:13:00;12.05;70.91
71649;SHT31;70112;45.624;11.760;2024-02-26T12:15:32;12.08;70.90
71649;SHT31;70112;45.624;11.760;2024-02-26T12:18:03;12.10;70.89
71649;SHT31;70112;45.624;11.760;2024-02-26T12:20:31;12.09;70.82
71649;SHT31;70112;45.624;11.760;2024-02-26T12:22:57;12.07;70.80
71649;SHT31;70112;45.624;11.760;2024-02-26T12:25:24;12.07;70.81
71649;SHT31;70112;45.624;11.760;2024-02-26T12:27:55;12.08;70.82
71649;SHT31;70112;45.624;11.760;2024-02-26T12:30:21;12.12;70.88
71649;SHT31;70112;45.624;11.760;2024-02-26T12:32:48;12.17;70.80
71649;SHT31;70112;45.624;11.760;2024-02-26T12:35:15;12.19;70.76
71649;SHT31;70112;45.624;11.760;2024-02-26T12:37:42;12.21;70.72
71649;SHT31;70112;45.624;11.760;2024-02-26T12:40:09;12.23;70.69
71649;SHT31;70112;45.624;11.760;2024-02-26T12:42:36;12.25;70.74
71649;SHT31;70112;45.624;11.760;2024-02-26T12:45:06;12.25;70.58
71649;SHT31;70112;45.624;11.760;2024-02-26T12:47:43;12.27;70.49
71649;SHT31;70112;45.624;11.760;2024-02-26T12:50:14;12.27;70.35
71649;SHT31;70112;45.624;11.760;2024-02-26T12:52:43;12.28;70.22
71649;SHT31;70112;45.624;11.760;2024-02-26T12:55:11;12.31;70.19
71649;SHT31;70112;45.624;11.760;2024-02-26T12:57:42;12.36;69.98
71649;SHT31;70112;45.624;11.760;2024-02-26T13:00:09;12.38;69.94
71649;SHT31;70112;45.624;11.760;2024-02-26T13:02:40;12.41;69.77
71649;SHT31;70112;45.624;11.760;2024-02-26T13:05:09;12.44;69.65
71649;SHT31;70112;45.624;11.760;2024-02-26T13:07:42;12.45;69.56
71649;SHT31;70112;45.624;11.760;2024-02-26T13:10:16;12.47;69.49
71649;SHT31;70112;45.624;11.760;2024-02-26T13:12:47;12.47;69.29
71649;SHT31;70112;45.624;11.760;2024-02-26T13:15:19;12.48;69.15
71649;SHT31;70112;45.624;11.760;2024-02-26T13:17:46;12.49;69.00
71649;SHT31;70112;45.624;11.760;2024-02-26T13:20:24;12.49;68.83
71649;SHT31;70112;45.624;11.760;2024-02-26T13:22:59;12.49;68.74
71649;SHT31;70112;45.624;11.760;2024-02-26T13:25:29;12.49;68.64
71649;SHT31;70112;45.624;11.760;2024-02-26T13:28:14;12.49;68.64
71649;SHT31;70112;45.624;11.760;2024-02-26T13:30:50;12.48;68.51
71649;SHT31;70112;45.624;11.760;2024-02-26T13:33:17;12.47;68.44
71649;SHT31;70112;45.624;11.760;2024-02-26T13:35:43;12.46;68.35
71649;SHT31;70112;45.624;11.760;2024-02-26T13:38:10;12.44;68.27
71649;SHT31;70112;45.624;11.760;2024-02-26T13:40:37;12.43;68.25
71649;SHT31;70112;45.624;11.760;2024-02-26T13:43:04;12.43;68.20
71649;SHT31;70112;45.624;11.760;2024-02-26T13:45:30;12.43;68.20
71649;SHT31;70112;45.624;11.760;2024-02-26T13:48:01;12.42;68.20
71649;SHT31;70112;45.624;11.760;2024-02-26T13:50:28;12.41;68.17
71649;SHT31;70112;45.624;11.760;2024-02-26T13:52:54;12.39;68.02
71649;SHT31;70112;45.624;11.760;2024-02-26T13:55:21;12.38;67.97
71649;SHT31;70112;45.624;11.760;2024-02-26T13:57:49;12.35;68.13
71649;SHT31;70112;45.624;11.760;2024-02-26T14:00:17;12.34;68.38
71649;SHT31;70112;45.624;11.760;2024-02-26T14:02:43;12.33;68.58
71649;SHT31;70112;45.624;11.760;2024-02-26T14:05:08;12.31;68.71
71649;SHT31;70112;45.624;11.760;2024-02-26T14:07:34;12.29;68.73
71649;SHT31;70112;45.624;11.760;2024-02-26T14:10:00;12.28;68.80
71649;SHT31;70112;45.624;11.760;2024-02-26T14:12:26;12.26;68.82
71649;SHT31;70112;45.624;11.760;2024-02-26T14:14:51;12.24;68.77
71649;SHT31;70112;45.624;11.760;2024-02-26T14:17:21;12.25;68.80
71649;SHT31;70112;45.624;11.760;2024-02-26T14:19:47;12.24;68.72
71649;SHT31;70112;45.624;11.760;2024-02-26T14:22:13;12.21;68.79
71649;SHT31;70112;45.624;11.760;2024-02-26T14:24:43;12.21;68.81
71649;SHT31;70112;45.624;11.760;2024-02-26T14:27:09;12.20;68.88
71649;SHT31;70112;45.624;11.760;2024-02-26T14:29:44;12.20;68.96
71649;SHT31;70112;45.624;11.760;2024-02-26T14:32:09;12.20;69.12
71649;SHT31;70112;45.624;11.760;2024-02-26T14:34:35;12.20;69.25
71649;SHT31;70112;45.624;11.760;2024-02-26T14:37:02;12.18;69.19
71649;SHT31;70112;45.624;11.760;2024-02-26T14:39:28;12.16;69.36
71649;SHT31;70112;45.624;11.760;2024-02-26T14:41:54;12.14;69.51
71649;SHT31;70112;45.624;11.760;2024-02-26T14:44:20;12.08;69.58
71649;SHT31;70112;45.624;11.760;2024-02-26T14:46:46;12.05;69.64
71649;SHT31;70112;45.624;11.760;2024-02-26T14:49:11;12.01;69.62
71649;SHT31;70112;45.624;11.760;2024-02-26T14:51:37;12.01;69.90
71649;SHT31;70112;45.624;11.760;2024-02-26T14:54:03;12.00;69.68
71649;SHT31;70112;45.624;11.760;2024-02-26T14:56:29;11.97;69.29
71649;SHT31;70112;45.624;11.760;2024-02-26T14:58:55;11.94;69.79
71649;SHT31;70112;45.624;11.760;2024-02-26T15:01:20;11.93;70.22
71649;SHT31;70112;45.624;11.760;2024-02-26T15:03:46;11.93;70.61
71649;SHT31;70112;45.624;11.760;2024-02-26T15:06:12;11.92;70.79
71649;SHT31;70112;45.624;11.760;2024-02-26T15:08:38;11.91;70.78
71649;SHT31;70112;45.624;11.760;2024-02-26T15:11:03;11.89;70.96
71649;SHT31;70112;45.624;11.760;2024-02-26T15:13:30;11.86;71.27
71649;SHT31;70112;45.624;11.760;2024-02-26T15:15:55;11.84;71.61
71649;SHT31;70112;45.624;11.760;2024-02-26T15:18:21;11.79;71.90
71649;SHT31;70112;45.624;11.760;2024-02-26T15:20:47;11.77;72.30
71649;SHT31;70112;45.624;11.760;2024-02-26T15:23:12;11.73;72.43
71649;SHT31;70112;45.624;11.760;2024-02-26T15:25:38;11.69;72.64
71649;SHT31;70112;45.624;11.760;2024-02-26T15:28:03;11.68;72.83
71649;SHT31;70112;45.624;11.760;2024-02-26T15:30:31;11.65;73.03
71649;SHT31;70112;45.624;11.760;2024-02-26T15:32:58;11.61;73.13
71649;SHT31;70112;45.624;11.760;2024-02-26T15:35:23;11.57;73.22
71649;SHT31;70112;45.624;11.760;2024-02-26T15:37:49;11.55;73.47
71649;SHT31;70112;45.624;11.760;2024-02-26T15:40:15;11.52;73.58
71649;SHT31;70112;45.624;11.760;2024-02-26T15:42:41;11.51;73.65
71649;SHT31;70112;45.624;11.760;2024-02-26T15:45:06;11.50;73.78
71649;SHT31;70112;45.624;11.760;2024-02-26T15:47:33;11.45;73.85
71649;SHT31;70112;45.624;11.760;2024-02-26T15:50:00;11.42;74.02
71649;SHT31;70112;45.624;11.760;2024-02-26T15:52:27;11.42;74.12
71649;SHT31;70112;45.624;11.760;2024-02-26T15:54:55;11.41;74.03
71649;SHT31;70112;45.624;11.760;2024-02-26T15:57:20;11.37;73.99
71649;SHT31;70112;45.624;11.760;2024-02-26T15:59:48;11.34;74.07
71649;SHT31;70112;45.624;11.760;2024-02-26T16:02:15;11.31;74.12
71649;SHT31;70112;45.624;11.760;2024-02-26T16:04:41;11.27;74.07
71649;SHT31;70112;45.624;11.760;2024-02-26T16:07:06;11.24;74.14
71649;SHT31;70112;45.624;11.760;2024-02-26T16:09:37;11.21;74.20
71649;SHT31;70112;45.624;11.760;2024-02-26T16:14:55;11.10;74.46
71649;SHT31;70112;45.624;11.760;2024-02-26T16:17:23;11.06;74.62
71649;SHT31;70112;45.624;11.760;2024-02-26T16:19:56;11.05;74.77
71649;SHT31;70112;45.624;11.760;2024-02-26T16:22:23;11.02;74.82